PWSweather.com
Personal Weather Stations
Station Observations
METEOBYST1
BystCZ

BystCZ

Lat: 50.124, Lon: 15.907

Elevation: 243

Station Type:

http://www.meteobyst.cz

Latest ConditionsUpdated 8:01:15 AM GMT+01:01 Wednesday, Jun 26, 2019
Currently Today's Max Today's Min Today's Average
Temperature 82.9°F28.3°C 82.9°F28.3°C 64.6°F18.1°C 70.8°F21.6°C
Dew Point 70.0°F21.1°C 71.0°F21.7°C 64.0°F17.8°C 66.6°F19.2°C
Winds 0.9 mph SE1.4 kmh SE 2.7 mph -4.3 kmh - - 0.4 mph 0.6 kmh
Wind Gusts 2.7 mph4.3 kmh 6.3 mph10.1 kmh - -
Humidity 65% 98% 64% 87%
Pressure 30.17 in1021.7 mb 30.21 in1023.0 mb 30.17 in1021.7 mb -
Hour Temp Dew Point Humidity Winds Wind Gusts Pressure Precip Precip Rate Daily Precip Total
08:01 AM 82.9°F28.3°C 70.0°F21.1°C 65% 0.9 mph SE1.4 kmh SE 2.7 mph4.3 kmh 30.17 in1021.7 mb 0.00 in0.0 mm 0.00 in0.0 mm 0.00 in0.0 mm
07:56 AM 82.8°F28.2°C 70.0°F21.1°C 65% 1.8 mph S2.9 kmh S 3.6 mph5.8 kmh 30.17 in1021.7 mb 0.00 in0.0 mm 0.00 in0.0 mm 0.00 in0.0 mm
07:51 AM 82.4°F28.0°C 70.0°F21.1°C 65% 1.8 mph SE2.9 kmh SE 3.6 mph5.8 kmh 30.17 in1021.7 mb 0.00 in0.0 mm 0.00 in0.0 mm 0.00 in0.0 mm
07:46 AM 82.8°F28.2°C 71.0°F21.7°C 67% 1.8 mph SE2.9 kmh SE 3.6 mph5.8 kmh 30.17 in1021.7 mb 0.00 in0.0 mm 0.00 in0.0 mm 0.00 in0.0 mm
07:41 AM 82.4°F28.0°C 69.0°F20.6°C 64% 0.9 mph E1.4 kmh E 2.7 mph4.3 kmh 30.17 in1021.7 mb 0.00 in0.0 mm 0.00 in0.0 mm 0.00 in0.0 mm
07:36 AM 81.9°F27.7°C 70.0°F21.1°C 66% 0.9 mph S1.4 kmh S 3.6 mph5.8 kmh 30.17 in1021.7 mb 0.00 in0.0 mm 0.00 in0.0 mm 0.00 in0.0 mm
07:31 AM 81.5°F27.5°C 70.0°F21.1°C 68% 0.9 mph SE1.4 kmh SE 2.7 mph4.3 kmh 30.17 in1021.7 mb 0.00 in0.0 mm 0.00 in0.0 mm 0.00 in0.0 mm
07:26 AM 80.6°F27.0°C 71.0°F21.7°C 71% 0.9 mph SE1.4 kmh SE 2.7 mph4.3 kmh 30.17 in1021.7 mb 0.00 in0.0 mm 0.00 in0.0 mm 0.00 in0.0 mm
07:21 AM 80.2°F26.8°C 69.0°F20.6°C 69% 0.9 mph SE1.4 kmh SE 3.6 mph5.8 kmh 30.17 in1021.7 mb 0.00 in0.0 mm 0.00 in0.0 mm 0.00 in0.0 mm
07:16 AM 80.2°F26.8°C 70.0°F21.1°C 71% 1.8 mph SE2.9 kmh SE 3.6 mph5.8 kmh 30.17 in1021.7 mb 0.00 in0.0 mm 0.00 in0.0 mm 0.00 in0.0 mm
07:11 AM 81.0°F27.2°C 71.0°F21.7°C 72% 2.7 mph E4.3 kmh E 4.5 mph7.2 kmh 30.17 in1021.7 mb 0.00 in0.0 mm 0.00 in0.0 mm 0.00 in0.0 mm
07:06 AM 79.5°F26.4°C 70.0°F21.1°C 73% 2.7 mph SE4.3 kmh SE 4.5 mph7.2 kmh 30.17 in1021.7 mb 0.00 in0.0 mm 0.00 in0.0 mm 0.00 in0.0 mm
07:01 AM 79.9°F26.6°C 70.0°F21.1°C 72% 1.8 mph NE2.9 kmh NE 5.4 mph8.7 kmh 30.17 in1021.7 mb 0.00 in0.0 mm 0.00 in0.0 mm 0.00 in0.0 mm
06:56 AM 79.5°F26.4°C 70.0°F21.1°C 73% 2.7 mph E4.3 kmh E 4.5 mph7.2 kmh 30.17 in1021.7 mb 0.00 in0.0 mm 0.00 in0.0 mm 0.00 in0.0 mm
06:51 AM 78.8°F26.0°C 70.0°F21.1°C 74% 1.8 mph SE2.9 kmh SE 4.5 mph7.2 kmh 30.17 in1021.7 mb 0.00 in0.0 mm 0.00 in0.0 mm 0.00 in0.0 mm
06:46 AM 79.0°F26.1°C 70.0°F21.1°C 74% 1.8 mph S2.9 kmh S 6.3 mph10.1 kmh 30.17 in1021.7 mb 0.00 in0.0 mm 0.00 in0.0 mm 0.00 in0.0 mm
06:41 AM 78.6°F25.9°C 70.0°F21.1°C 75% 1.8 mph NE2.9 kmh NE 4.5 mph7.2 kmh 30.17 in1021.7 mb 0.00 in0.0 mm 0.00 in0.0 mm 0.00 in0.0 mm
06:36 AM 78.6°F25.9°C 70.0°F21.1°C 75% 1.8 mph NE2.9 kmh NE 3.6 mph5.8 kmh 30.17 in1021.7 mb 0.00 in0.0 mm 0.00 in0.0 mm 0.00 in0.0 mm
06:31 AM 78.1°F25.6°C 70.0°F21.1°C 76% 1.8 mph S2.9 kmh S 4.5 mph7.2 kmh 30.17 in1021.7 mb 0.00 in0.0 mm 0.00 in0.0 mm 0.00 in0.0 mm
06:26 AM 77.4°F25.2°C 70.0°F21.1°C 77% 1.8 mph NE2.9 kmh NE 4.5 mph7.2 kmh 30.17 in1021.7 mb 0.00 in0.0 mm 0.00 in0.0 mm 0.00 in0.0 mm
06:21 AM 77.5°F25.3°C 70.0°F21.1°C 77% 1.8 mph E2.9 kmh E 2.7 mph4.3 kmh 30.17 in1021.7 mb 0.00 in0.0 mm 0.00 in0.0 mm 0.00 in0.0 mm
06:16 AM 77.2°F25.1°C 70.0°F21.1°C 78% 1.8 mph E2.9 kmh E 4.5 mph7.2 kmh 30.17 in1021.7 mb 0.00 in0.0 mm 0.00 in0.0 mm 0.00 in0.0 mm
06:11 AM 77.0°F25.0°C 70.0°F21.1°C 79% 1.8 mph SE2.9 kmh SE 3.6 mph5.8 kmh 30.17 in1021.7 mb 0.00 in0.0 mm 0.00 in0.0 mm 0.00 in0.0 mm
06:06 AM 76.6°F24.8°C 70.0°F21.1°C 79% 0.9 mph E1.4 kmh E 2.7 mph4.3 kmh 30.17 in1021.7 mb 0.00 in0.0 mm 0.00 in0.0 mm 0.00 in0.0 mm
06:01 AM 75.9°F24.4°C 70.0°F21.1°C 82% 0.9 mph E1.4 kmh E 2.7 mph4.3 kmh 30.17 in1021.7 mb 0.00 in0.0 mm 0.00 in0.0 mm 0.00 in0.0 mm
05:56 AM 75.7°F24.3°C 70.0°F21.1°C 83% Calm Calm 1.8 mph2.9 kmh 30.17 in1021.7 mb 0.00 in0.0 mm 0.00 in0.0 mm 0.00 in0.0 mm
05:51 AM 75.2°F24.0°C 70.0°F21.1°C 82% Calm Calm 1.8 mph2.9 kmh 30.18 in1022.0 mb 0.00 in0.0 mm 0.00 in0.0 mm 0.00 in0.0 mm
05:46 AM 74.8°F23.8°C 69.0°F20.6°C 82% 0.9 mph NE1.4 kmh NE 1.8 mph2.9 kmh 30.18 in1022.0 mb 0.00 in0.0 mm 0.00 in0.0 mm 0.00 in0.0 mm
05:41 AM 74.7°F23.7°C 69.0°F20.6°C 83% Calm Calm 1.8 mph2.9 kmh 30.18 in1022.0 mb 0.00 in0.0 mm 0.00 in0.0 mm 0.00 in0.0 mm
05:36 AM 73.8°F23.2°C 69.0°F20.6°C 85% Calm Calm 1.8 mph2.9 kmh 30.18 in1022.0 mb 0.00 in0.0 mm 0.00 in0.0 mm 0.00 in0.0 mm
05:31 AM 73.0°F22.8°C 68.0°F20.0°C 85% Calm Calm 1.8 mph2.9 kmh 30.18 in1022.0 mb 0.00 in0.0 mm 0.00 in0.0 mm 0.00 in0.0 mm
05:26 AM 72.9°F22.7°C 68.0°F20.0°C 85% Calm Calm 1.8 mph2.9 kmh 30.18 in1022.0 mb 0.00 in0.0 mm 0.00 in0.0 mm 0.00 in0.0 mm
05:21 AM 71.6°F22.0°C 68.0°F20.0°C 87% Calm Calm 0.9 mph1.4 kmh 30.19 in1022.4 mb 0.00 in0.0 mm 0.00 in0.0 mm 0.00 in0.0 mm
05:16 AM 70.7°F21.5°C 67.0°F19.4°C 89% Calm Calm 1.8 mph2.9 kmh 30.18 in1022.0 mb 0.00 in0.0 mm 0.00 in0.0 mm 0.00 in0.0 mm
05:11 AM 69.3°F20.7°C 67.0°F19.4°C 92% Calm Calm 1.8 mph2.9 kmh 30.19 in1022.4 mb 0.00 in0.0 mm 0.00 in0.0 mm 0.00 in0.0 mm
05:06 AM 67.8°F19.9°C 67.0°F19.4°C 95% Calm Calm 0.9 mph1.4 kmh 30.19 in1022.4 mb 0.00 in0.0 mm 0.00 in0.0 mm 0.00 in0.0 mm
05:01 AM 66.9°F19.4°C 66.0°F18.9°C 97% Calm Calm 0.9 mph1.4 kmh 30.19 in1022.4 mb 0.00 in0.0 mm 0.00 in0.0 mm 0.00 in0.0 mm
04:56 AM 66.2°F19.0°C 66.0°F18.9°C 98% Calm Calm -- 30.20 in1022.7 mb 0.00 in0.0 mm 0.00 in0.0 mm 0.00 in0.0 mm
04:51 AM 65.7°F18.7°C 65.0°F18.3°C 97% Calm Calm 0.9 mph1.4 kmh 30.19 in1022.4 mb 0.00 in0.0 mm 0.00 in0.0 mm 0.00 in0.0 mm
04:46 AM 65.7°F18.7°C 65.0°F18.3°C 97% Calm Calm -- 30.19 in1022.4 mb 0.00 in0.0 mm 0.00 in0.0 mm 0.00 in0.0 mm
04:41 AM 65.3°F18.5°C 65.0°F18.3°C 97% Calm Calm 0.9 mph1.4 kmh 30.19 in1022.4 mb 0.00 in0.0 mm 0.00 in0.0 mm 0.00 in0.0 mm
04:36 AM 64.9°F18.3°C 64.0°F17.8°C 97% Calm Calm 0.9 mph1.4 kmh 30.19 in1022.4 mb 0.00 in0.0 mm 0.00 in0.0 mm 0.00 in0.0 mm
04:31 AM 64.9°F18.3°C 64.0°F17.8°C 97% Calm Calm 0.9 mph1.4 kmh 30.19 in1022.4 mb 0.00 in0.0 mm 0.00 in0.0 mm 0.00 in0.0 mm
04:26 AM 64.8°F18.2°C 64.0°F17.8°C 97% Calm Calm 0.9 mph1.4 kmh 30.19 in1022.4 mb 0.00 in0.0 mm 0.00 in0.0 mm 0.00 in0.0 mm
04:21 AM 64.8°F18.2°C 64.0°F17.8°C 96% Calm Calm 0.9 mph1.4 kmh 30.20 in1022.7 mb 0.00 in0.0 mm 0.00 in0.0 mm 0.00 in0.0 mm
04:16 AM 64.6°F18.1°C 64.0°F17.8°C 96% Calm Calm -- 30.19 in1022.4 mb 0.00 in0.0 mm 0.00 in0.0 mm 0.00 in0.0 mm
04:11 AM 64.8°F18.2°C 64.0°F17.8°C 96% Calm Calm -- 30.20 in1022.7 mb 0.00 in0.0 mm 0.00 in0.0 mm 0.00 in0.0 mm
04:06 AM 65.1°F18.4°C 64.0°F17.8°C 95% Calm Calm -- 30.19 in1022.4 mb 0.00 in0.0 mm 0.00 in0.0 mm 0.00 in0.0 mm
04:01 AM 65.3°F18.5°C 64.0°F17.8°C 95% Calm Calm -- 30.19 in1022.4 mb 0.00 in0.0 mm 0.00 in0.0 mm 0.00 in0.0 mm
03:51 AM 65.8°F18.8°C 64.0°F17.8°C 94% Calm Calm 0.9 mph1.4 kmh 30.19 in1022.4 mb 0.00 in0.0 mm 0.00 in0.0 mm 0.00 in0.0 mm
03:46 AM 66.0°F18.9°C 64.0°F17.8°C 94% Calm Calm 0.9 mph1.4 kmh 30.20 in1022.7 mb 0.00 in0.0 mm 0.00 in0.0 mm 0.00 in0.0 mm
03:41 AM 66.2°F19.0°C 64.0°F17.8°C 93% Calm Calm 0.9 mph1.4 kmh 30.19 in1022.4 mb 0.00 in0.0 mm 0.00 in0.0 mm 0.00 in0.0 mm
03:36 AM 66.6°F19.2°C 65.0°F18.3°C 93% Calm Calm 0.9 mph1.4 kmh 30.20 in1022.7 mb 0.00 in0.0 mm 0.00 in0.0 mm 0.00 in0.0 mm
03:31 AM 66.6°F19.2°C 65.0°F18.3°C 93% Calm Calm 0.9 mph1.4 kmh 30.20 in1022.7 mb 0.00 in0.0 mm 0.00 in0.0 mm 0.00 in0.0 mm
03:26 AM 66.7°F19.3°C 65.0°F18.3°C 93% Calm Calm 1.8 mph2.9 kmh 30.19 in1022.4 mb 0.00 in0.0 mm 0.00 in0.0 mm 0.00 in0.0 mm
03:21 AM 66.7°F19.3°C 65.0°F18.3°C 93% Calm Calm 1.8 mph2.9 kmh 30.19 in1022.4 mb 0.00 in0.0 mm 0.00 in0.0 mm 0.00 in0.0 mm
03:16 AM 66.9°F19.4°C 65.0°F18.3°C 92% Calm Calm 0.9 mph1.4 kmh 30.20 in1022.7 mb 0.00 in0.0 mm 0.00 in0.0 mm 0.00 in0.0 mm
03:11 AM 67.3°F19.6°C 65.0°F18.3°C 93% Calm Calm 0.9 mph1.4 kmh 30.19 in1022.4 mb 0.00 in0.0 mm 0.00 in0.0 mm 0.00 in0.0 mm
03:06 AM 67.5°F19.7°C 65.0°F18.3°C 92% Calm Calm 1.8 mph2.9 kmh 30.20 in1022.7 mb 0.00 in0.0 mm 0.00 in0.0 mm 0.00 in0.0 mm
03:01 AM 67.3°F19.6°C 65.0°F18.3°C 93% Calm Calm 0.9 mph1.4 kmh 30.19 in1022.4 mb 0.00 in0.0 mm 0.00 in0.0 mm 0.00 in0.0 mm
02:56 AM 67.3°F19.6°C 65.0°F18.3°C 92% Calm Calm 0.9 mph1.4 kmh 30.20 in1022.7 mb 0.00 in0.0 mm 0.00 in0.0 mm 0.00 in0.0 mm
02:51 AM 66.9°F19.4°C 65.0°F18.3°C 93% Calm Calm -- 30.19 in1022.4 mb 0.00 in0.0 mm 0.00 in0.0 mm 0.00 in0.0 mm
02:46 AM 66.9°F19.4°C 65.0°F18.3°C 93% Calm Calm 0.9 mph1.4 kmh 30.20 in1022.7 mb 0.00 in0.0 mm 0.00 in0.0 mm 0.00 in0.0 mm
02:41 AM 67.1°F19.5°C 65.0°F18.3°C 93% Calm Calm 0.9 mph1.4 kmh 30.20 in1022.7 mb 0.00 in0.0 mm 0.00 in0.0 mm 0.00 in0.0 mm
02:36 AM 67.1°F19.5°C 65.0°F18.3°C 92% Calm Calm 0.9 mph1.4 kmh 30.19 in1022.4 mb 0.00 in0.0 mm 0.00 in0.0 mm 0.00 in0.0 mm
02:31 AM 67.5°F19.7°C 65.0°F18.3°C 92% Calm Calm 0.9 mph1.4 kmh 30.19 in1022.4 mb 0.00 in0.0 mm 0.00 in0.0 mm 0.00 in0.0 mm
02:26 AM 67.5°F19.7°C 65.0°F18.3°C 92% Calm Calm 1.8 mph2.9 kmh 30.20 in1022.7 mb 0.00 in0.0 mm 0.00 in0.0 mm 0.00 in0.0 mm
02:21 AM 67.5°F19.7°C 65.0°F18.3°C 92% Calm Calm 1.8 mph2.9 kmh 30.20 in1022.7 mb 0.00 in0.0 mm 0.00 in0.0 mm 0.00 in0.0 mm
02:16 AM 67.1°F19.5°C 65.0°F18.3°C 92% Calm Calm 0.9 mph1.4 kmh 30.20 in1022.7 mb 0.00 in0.0 mm 0.00 in0.0 mm 0.00 in0.0 mm
02:11 AM 67.3°F19.6°C 65.0°F18.3°C 93% Calm Calm 0.9 mph1.4 kmh 30.20 in1022.7 mb 0.00 in0.0 mm 0.00 in0.0 mm 0.00 in0.0 mm
02:06 AM 67.5°F19.7°C 66.0°F18.9°C 93% Calm Calm 0.9 mph1.4 kmh 30.20 in1022.7 mb 0.00 in0.0 mm 0.00 in0.0 mm 0.00 in0.0 mm
02:01 AM 67.6°F19.8°C 65.0°F18.3°C 92% Calm Calm 0.9 mph1.4 kmh 30.20 in1022.7 mb 0.00 in0.0 mm 0.00 in0.0 mm 0.00 in0.0 mm
01:56 AM 67.3°F19.6°C 66.0°F18.9°C 94% Calm Calm 1.8 mph2.9 kmh 30.20 in1022.7 mb 0.00 in0.0 mm 0.00 in0.0 mm 0.00 in0.0 mm
01:51 AM 67.3°F19.6°C 65.0°F18.3°C 93% Calm Calm 0.9 mph1.4 kmh 30.20 in1022.7 mb 0.00 in0.0 mm 0.00 in0.0 mm 0.00 in0.0 mm
01:46 AM 67.6°F19.8°C 65.0°F18.3°C 91% Calm Calm 1.8 mph2.9 kmh 30.20 in1022.7 mb 0.00 in0.0 mm 0.00 in0.0 mm 0.00 in0.0 mm
01:41 AM 67.6°F19.8°C 65.0°F18.3°C 92% Calm Calm 0.9 mph1.4 kmh 30.20 in1022.7 mb 0.00 in0.0 mm 0.00 in0.0 mm 0.00 in0.0 mm
01:36 AM 67.5°F19.7°C 65.0°F18.3°C 92% Calm Calm 0.9 mph1.4 kmh 30.20 in1022.7 mb 0.00 in0.0 mm 0.00 in0.0 mm 0.00 in0.0 mm
01:31 AM 67.5°F19.7°C 65.0°F18.3°C 92% Calm Calm 0.9 mph1.4 kmh 30.21 in1023.0 mb 0.00 in0.0 mm 0.00 in0.0 mm 0.00 in0.0 mm
01:26 AM 67.5°F19.7°C 65.0°F18.3°C 92% Calm Calm 0.9 mph1.4 kmh 30.20 in1022.7 mb 0.00 in0.0 mm 0.00 in0.0 mm 0.00 in0.0 mm
01:21 AM 67.6°F19.8°C 66.0°F18.9°C 93% Calm Calm 1.8 mph2.9 kmh 30.20 in1022.7 mb 0.00 in0.0 mm 0.00 in0.0 mm 0.00 in0.0 mm
01:16 AM 67.5°F19.7°C 65.0°F18.3°C 92% Calm Calm 0.9 mph1.4 kmh 30.20 in1022.7 mb 0.00 in0.0 mm 0.00 in0.0 mm 0.00 in0.0 mm
01:11 AM 67.8°F19.9°C 66.0°F18.9°C 92% Calm Calm 0.9 mph1.4 kmh 30.20 in1022.7 mb 0.00 in0.0 mm 0.00 in0.0 mm 0.00 in0.0 mm
01:06 AM 67.8°F19.9°C 65.0°F18.3°C 91% Calm Calm 0.9 mph1.4 kmh 30.20 in1022.7 mb 0.00 in0.0 mm 0.00 in0.0 mm 0.00 in0.0 mm
01:01 AM 67.5°F19.7°C 65.0°F18.3°C 92% Calm Calm 1.8 mph2.9 kmh 30.20 in1022.7 mb 0.00 in0.0 mm 0.00 in0.0 mm 0.00 in0.0 mm
12:56 AM 67.5°F19.7°C 65.0°F18.3°C 92% Calm Calm 1.8 mph2.9 kmh 30.20 in1022.7 mb 0.00 in0.0 mm 0.00 in0.0 mm 0.00 in0.0 mm
12:51 AM 67.3°F19.6°C 65.0°F18.3°C 93% Calm Calm 0.9 mph1.4 kmh 30.20 in1022.7 mb 0.00 in0.0 mm 0.00 in0.0 mm 0.00 in0.0 mm
12:46 AM 67.3°F19.6°C 65.0°F18.3°C 92% Calm Calm 1.8 mph2.9 kmh 30.20 in1022.7 mb 0.00 in0.0 mm 0.00 in0.0 mm 0.00 in0.0 mm
12:41 AM 67.1°F19.5°C 65.0°F18.3°C 93% Calm Calm 1.8 mph2.9 kmh 30.21 in1023.0 mb 0.00 in0.0 mm 0.00 in0.0 mm 0.00 in0.0 mm
12:36 AM 66.9°F19.4°C 65.0°F18.3°C 92% Calm Calm -- 30.21 in1023.0 mb 0.00 in0.0 mm 0.00 in0.0 mm 0.00 in0.0 mm
12:31 AM 67.3°F19.6°C 65.0°F18.3°C 92% Calm Calm -- 30.21 in1023.0 mb 0.00 in0.0 mm 0.00 in0.0 mm 0.00 in0.0 mm
12:26 AM 67.5°F19.7°C 65.0°F18.3°C 92% Calm Calm -- 30.21 in1023.0 mb 0.00 in0.0 mm 0.00 in0.0 mm 0.00 in0.0 mm
12:21 AM 67.6°F19.8°C 65.0°F18.3°C 91% Calm Calm 0.9 mph1.4 kmh 30.21 in1023.0 mb 0.00 in0.0 mm 0.00 in0.0 mm 0.00 in0.0 mm
12:16 AM 67.3°F19.6°C 65.0°F18.3°C 91% Calm Calm 0.9 mph1.4 kmh 30.21 in1023.0 mb 0.00 in0.0 mm 0.00 in0.0 mm 0.00 in0.0 mm
12:11 AM 67.5°F19.7°C 65.0°F18.3°C 91% Calm Calm 0.9 mph1.4 kmh 30.21 in1023.0 mb 0.00 in0.0 mm 0.00 in0.0 mm 0.00 in0.0 mm
12:06 AM 67.3°F19.6°C 65.0°F18.3°C 92% Calm Calm -- 30.21 in1023.0 mb 0.00 in0.0 mm 0.00 in0.0 mm 0.00 in0.0 mm
12:01 AM 67.3°F19.6°C 65.0°F18.3°C 91% Calm Calm 0.9 mph1.4 kmh 30.21 in1023.0 mb 0.00 in0.0 mm 0.00 in0.0 mm 0.00 in0.0 mm